createdAt,value
2018-11-07T00:00:51.778Z,97.30
2018-11-07T00:03:20.756Z,97.40
2018-11-07T00:05:49.242Z,97.40
2018-11-07T00:08:17.752Z,97.50
2018-11-07T00:10:45.851Z,97.50
2018-11-07T00:13:15.216Z,97.60
2018-11-07T00:15:43.532Z,97.60
2018-11-07T00:18:14.615Z,97.60
2018-11-07T00:20:43.190Z,97.50
2018-11-07T00:23:11.430Z,97.50
2018-11-07T00:25:39.695Z,97.50
2018-11-07T00:28:07.959Z,97.40
2018-11-07T00:30:36.302Z,97.30
2018-11-07T00:33:04.831Z,97.20
2018-11-07T00:35:33.115Z,97.20
2018-11-07T00:38:01.387Z,97.20
2018-11-07T00:40:29.630Z,97.10
2018-11-07T00:42:57.894Z,97.10
2018-11-07T00:45:26.135Z,97.00
2018-11-07T00:47:54.915Z,96.90
2018-11-07T00:50:23.177Z,96.90
2018-11-07T00:52:51.419Z,96.80
2018-11-07T00:55:19.728Z,96.80
2018-11-07T00:57:48.012Z,96.70
2018-11-07T01:00:17.435Z,96.70
2018-11-07T01:02:46.369Z,96.70
2018-11-07T01:05:14.943Z,96.70
2018-11-07T01:07:44.367Z,96.70
2018-11-07T01:10:12.667Z,96.70
2018-11-07T01:12:41.675Z,96.60
2018-11-07T01:15:10.787Z,96.60
2018-11-07T01:17:39.128Z,96.70
2018-11-07T01:20:09.027Z,96.80
2018-11-07T01:22:37.304Z,96.70
2018-11-07T01:25:06.659Z,96.70
2018-11-07T01:27:35.176Z,96.80
2018-11-07T01:30:03.521Z,96.80
2018-11-07T01:32:31.834Z,96.90
2018-11-07T01:35:00.091Z,97.00
2018-11-07T01:37:28.378Z,97.00
2018-11-07T01:39:56.659Z,97.20
2018-11-07T01:42:24.940Z,97.20
2018-11-07T01:44:53.227Z,97.30
2018-11-07T01:47:21.529Z,97.40
2018-11-07T01:49:49.807Z,97.50
2018-11-07T01:52:18.096Z,97.40
2018-11-07T01:54:46.371Z,97.40
2018-11-07T01:57:14.639Z,97.40
2018-11-07T01:59:42.923Z,97.50
2018-11-07T02:02:11.185Z,97.60
2018-11-07T02:04:39.424Z,97.60
2018-11-07T02:07:08.097Z,97.60
2018-11-07T02:09:36.358Z,97.60
2018-11-07T02:12:04.654Z,97.60
2018-11-07T02:14:32.928Z,97.60
2018-11-07T02:17:01.235Z,97.60
2018-11-07T02:19:29.474Z,97.70
2018-11-07T02:21:57.762Z,97.70
2018-11-07T02:24:26.087Z,97.80
2018-11-07T02:26:54.371Z,97.90
2018-11-07T02:29:22.668Z,97.90
2018-11-07T02:31:50.926Z,97.80
2018-11-07T02:34:19.185Z,97.80
2018-11-07T02:36:47.519Z,97.80
2018-11-07T02:39:16.080Z,98.00
2018-11-07T02:41:44.365Z,97.80
2018-11-07T02:44:13.542Z,97.90
2018-11-07T02:46:42.645Z,97.80
2018-11-07T02:49:10.908Z,97.70
2018-11-07T02:51:39.175Z,97.60
2018-11-07T02:54:07.408Z,97.50
2018-11-07T02:56:35.699Z,97.40
2018-11-07T02:59:03.944Z,97.40
2018-11-07T03:01:32.571Z,97.40
2018-11-07T03:04:00.821Z,97.40
2018-11-07T03:06:29.130Z,97.40
2018-11-07T03:08:57.303Z,97.50
2018-11-07T03:11:25.663Z,97.50
2018-11-07T03:13:53.972Z,97.40
2018-11-07T03:16:22.230Z,97.40
2018-11-07T03:18:50.543Z,97.30
2018-11-07T03:21:18.795Z,97.30
2018-11-07T03:23:47.076Z,97.30
2018-11-07T03:26:15.308Z,97.40
2018-11-07T03:28:43.608Z,97.60
2018-11-07T03:31:11.912Z,97.60
2018-11-07T03:33:40.345Z,97.70
2018-11-07T03:36:08.662Z,97.70
2018-11-07T03:38:36.984Z,97.70
2018-11-07T03:41:05.582Z,97.70
2018-11-07T03:43:33.964Z,97.60
2018-11-07T03:46:02.291Z,97.60
2018-11-07T03:48:31.615Z,97.60
2018-11-07T03:51:00.517Z,97.60
2018-11-07T03:53:28.811Z,97.50
2018-11-07T03:55:57.290Z,97.50
2018-11-07T03:58:25.718Z,97.50
2018-11-07T04:00:54.094Z,97.50
2018-11-07T04:03:22.523Z,97.50
2018-11-07T04:05:50.812Z,97.40
2018-11-07T04:08:19.130Z,97.40
2018-11-07T04:10:47.412Z,97.50
2018-11-07T04:13:15.684Z,97.50
2018-11-07T04:15:44.018Z,97.40
2018-11-07T04:18:12.415Z,97.40
2018-11-07T04:20:40.748Z,97.30
2018-11-07T04:23:09.112Z,97.20
2018-11-07T04:25:37.429Z,97.10
2018-11-07T04:28:06.096Z,97.10
2018-11-07T04:30:34.408Z,97.10
2018-11-07T04:33:02.701Z,97.10
2018-11-07T04:35:31.069Z,97.20
2018-11-07T04:37:59.476Z,97.30
2018-11-07T04:40:27.814Z,97.40
2018-11-07T04:42:56.149Z,97.30
2018-11-07T04:45:24.534Z,97.40
2018-11-07T04:47:52.892Z,97.50
2018-11-07T04:50:21.175Z,97.80
2018-11-07T04:52:49.514Z,97.60
2018-11-07T04:55:17.895Z,97.70
2018-11-07T04:57:46.265Z,97.70
2018-11-07T05:00:15.357Z,97.70
2018-11-07T05:02:43.596Z,97.70
2018-11-07T05:05:11.882Z,97.70
2018-11-07T05:07:40.275Z,97.80
2018-11-07T05:10:09.628Z,97.70
2018-11-07T05:12:38.043Z,97.80
2018-11-07T05:15:06.975Z,97.80
2018-11-07T05:17:35.285Z,97.70
2018-11-07T05:20:03.794Z,97.70
2018-11-07T05:22:32.125Z,97.70
2018-11-07T05:25:00.403Z,97.80
2018-11-07T05:27:29.466Z,97.80
2018-11-07T05:29:57.839Z,97.90
2018-11-07T05:32:26.270Z,97.90
2018-11-07T05:34:54.975Z,98.00
2018-11-07T05:37:23.291Z,97.90
2018-11-07T05:39:51.583Z,97.90
2018-11-07T05:42:19.876Z,97.90
2018-11-07T05:44:48.305Z,97.90
2018-11-07T05:47:16.567Z,98.10
2018-11-07T05:49:44.930Z,97.90
2018-11-07T05:52:13.888Z,97.90
2018-11-07T05:54:42.180Z,97.80
2018-11-07T05:57:10.517Z,97.90
2018-11-07T05:59:39.229Z,97.80
2018-11-07T06:02:09.469Z,97.70
2018-11-07T06:04:37.940Z,97.70
2018-11-07T06:07:06.751Z,97.80
2018-11-07T06:09:35.109Z,97.80
2018-11-07T06:12:04.582Z,97.70
2018-11-07T06:14:34.125Z,97.70
2018-11-07T06:17:02.817Z,97.70
2018-11-07T06:19:31.205Z,97.70
2018-11-07T06:21:59.632Z,97.70
2018-11-07T06:24:28.003Z,97.80
2018-11-07T06:26:56.297Z,97.80
2018-11-07T06:29:24.809Z,97.70
2018-11-07T06:31:53.149Z,97.70
2018-11-07T06:34:22.096Z,97.60
2018-11-07T06:36:50.555Z,97.60
2018-11-07T06:39:18.897Z,97.60
2018-11-07T06:41:47.343Z,97.60
2018-11-07T06:44:15.736Z,97.60
2018-11-07T06:46:44.088Z,97.60
2018-11-07T06:49:12.694Z,97.60
2018-11-07T06:51:41.099Z,97.60
2018-11-07T06:54:09.415Z,97.60
2018-11-07T06:56:37.791Z,97.70
2018-11-07T06:59:06.764Z,97.70
2018-11-07T07:01:35.068Z,97.70
2018-11-07T07:04:03.383Z,97.80
2018-11-07T07:06:31.739Z,97.70
2018-11-07T07:09:00.041Z,97.70
2018-11-07T07:11:28.380Z,97.70
2018-11-07T07:13:56.721Z,97.70
2018-11-07T07:16:25.012Z,97.70
2018-11-07T07:18:53.351Z,97.70
2018-11-07T07:21:22.200Z,97.70
2018-11-07T07:23:50.507Z,97.60
2018-11-07T07:26:18.779Z,97.40
2018-11-07T07:28:47.092Z,97.40
2018-11-07T07:31:15.385Z,97.50
2018-11-07T07:33:43.911Z,97.40
2018-11-07T07:36:12.160Z,97.30
2018-11-07T07:38:40.503Z,97.30
2018-11-07T07:41:08.778Z,97.20
2018-11-07T07:43:37.044Z,96.90
2018-11-07T07:46:05.588Z,97.00
2018-11-07T07:48:33.868Z,97.00
2018-11-07T07:51:02.142Z,96.90
2018-11-07T07:53:30.534Z,96.80
2018-11-07T07:55:58.807Z,96.70
2018-11-07T07:58:27.099Z,96.60
2018-11-07T08:00:55.410Z,96.60
2018-11-07T08:03:23.670Z,96.60
2018-11-07T08:05:52.008Z,96.40
2018-11-07T08:08:20.332Z,96.40
2018-11-07T08:10:48.820Z,96.30
2018-11-07T08:13:17.813Z,96.30
2018-11-07T08:15:46.565Z,96.00
2018-11-07T08:18:15.427Z,96.00
2018-11-07T08:20:43.768Z,95.80
2018-11-07T08:23:12.071Z,95.60
2018-11-07T08:25:40.529Z,95.60
2018-11-07T08:28:09.188Z,95.40
2018-11-07T08:30:37.733Z,95.30
2018-11-07T08:33:06.120Z,95.10
2018-11-07T08:35:34.370Z,95.00
2018-11-07T08:38:02.636Z,94.80
2018-11-07T08:40:30.966Z,94.90
2018-11-07T08:42:59.276Z,95.30
2018-11-07T08:45:27.556Z,94.80
2018-11-07T08:47:55.919Z,94.40
2018-11-07T08:50:24.123Z,94.30
2018-11-07T08:52:52.377Z,93.90
2018-11-07T08:55:21.723Z,93.80
2018-11-07T08:57:50.376Z,93.70
2018-11-07T09:00:20.834Z,93.40
2018-11-07T09:02:49.123Z,93.30
2018-11-07T09:05:19.656Z,93.10
2018-11-07T09:07:48.358Z,92.90
2018-11-07T09:10:18.275Z,92.80
2018-11-07T09:12:46.930Z,92.40
2018-11-07T09:15:16.667Z,92.30
2018-11-07T09:17:45.316Z,92.10
2018-11-07T09:20:17.054Z,91.90
2018-11-07T09:22:45.924Z,91.80
2018-11-07T09:25:15.318Z,91.80
2018-11-07T09:27:44.503Z,91.90
2018-11-07T09:30:16.762Z,91.40
2018-11-07T09:32:45.507Z,91.20
2018-11-07T09:35:14.512Z,91.10
2018-11-07T09:37:43.065Z,91.10
2018-11-07T09:40:14.437Z,90.80
2018-11-07T09:42:43.824Z,90.60
2018-11-07T09:45:13.775Z,90.40
2018-11-07T09:47:42.980Z,90.40
2018-11-07T09:50:12.485Z,90.30
2018-11-07T09:52:41.615Z,90.20
2018-11-07T09:55:12.000Z,90.10
2018-11-07T09:57:43.930Z,90.10
2018-11-07T10:00:14.779Z,90.10
2018-11-07T10:05:39.079Z,89.30
2018-11-07T10:08:07.367Z,87.90
2018-11-07T10:10:35.704Z,87.60
2018-11-07T10:13:04.168Z,87.30
2018-11-07T10:15:32.440Z,87.00
2018-11-07T10:18:00.754Z,85.90
2018-11-07T10:20:29.105Z,85.60
2018-11-07T10:22:57.375Z,84.70
2018-11-07T10:25:25.714Z,83.90
2018-11-07T10:27:54.373Z,83.60
2018-11-07T10:30:22.532Z,83.70
2018-11-07T10:32:51.321Z,83.20
2018-11-07T10:35:19.631Z,82.90
2018-11-07T10:37:47.940Z,82.60
2018-11-07T10:40:21.519Z,82.30
2018-11-07T10:42:49.819Z,82.60
2018-11-07T10:45:18.180Z,82.80
2018-11-07T10:47:47.222Z,83.00
2018-11-07T10:50:16.536Z,82.50
2018-11-07T10:52:45.515Z,82.00
2018-11-07T10:55:14.653Z,81.50
2018-11-07T10:57:42.924Z,81.30
2018-11-07T11:00:18.580Z,81.10
2018-11-07T11:03:50.914Z,80.10
2018-11-07T11:06:19.256Z,79.70
2018-11-07T11:08:47.548Z,79.40
2018-11-07T11:11:15.871Z,78.80
2018-11-07T11:13:44.144Z,79.00
2018-11-07T11:16:12.425Z,78.80
2018-11-07T11:18:40.699Z,78.40
2018-11-07T11:24:12.731Z,78.10
2018-11-07T11:26:41.020Z,77.70
2018-11-07T11:29:09.282Z,79.00
2018-11-07T11:31:38.076Z,78.00
2018-11-07T11:34:06.482Z,78.10
2018-11-07T11:36:34.718Z,76.20
2018-11-07T11:39:03.194Z,75.70
2018-11-07T11:41:38.172Z,75.40
2018-11-07T11:44:06.769Z,74.70
2018-11-07T11:46:35.418Z,74.20
2018-11-07T11:49:04.335Z,73.80
2018-11-07T11:51:32.935Z,73.60
2018-11-07T11:54:01.399Z,73.20
2018-11-07T11:56:29.662Z,72.40
2018-11-07T11:58:58.392Z,72.00
2018-11-07T12:01:26.708Z,71.20
2018-11-07T12:03:55.032Z,70.50
2018-11-07T12:06:23.389Z,69.90
2018-11-07T12:08:51.748Z,69.60
2018-11-07T12:11:20.014Z,69.70
2018-11-07T12:13:48.357Z,69.80
2018-11-07T12:16:16.896Z,69.70
2018-11-07T12:18:45.286Z,69.90
2018-11-07T12:21:13.608Z,69.90
2018-11-07T12:23:41.784Z,70.10
2018-11-07T12:26:10.061Z,70.40
2018-11-07T12:28:38.368Z,70.60
2018-11-07T12:31:06.652Z,70.90
2018-11-07T12:33:34.938Z,71.40
2018-11-07T12:36:03.231Z,71.10
2018-11-07T12:38:32.073Z,70.50
2018-11-07T12:41:00.515Z,69.90
2018-11-07T12:43:28.892Z,69.40
2018-11-07T12:45:57.157Z,68.90
2018-11-07T12:48:25.538Z,68.90
2018-11-07T12:50:53.839Z,69.10
2018-11-07T12:53:22.126Z,69.30
2018-11-07T12:55:50.476Z,69.20
2018-11-07T12:58:18.870Z,69.20
2018-11-07T13:00:49.748Z,69.40
2018-11-07T13:03:18.043Z,69.50
2018-11-07T13:05:46.432Z,69.50
2018-11-07T13:08:14.712Z,69.60
2018-11-07T13:10:42.951Z,70.50
2018-11-07T13:13:11.261Z,71.60
2018-11-07T13:15:39.533Z,72.30
2018-11-07T13:18:07.903Z,73.00
2018-11-07T13:20:36.187Z,73.30
2018-11-07T13:23:04.497Z,73.50
2018-11-07T13:25:32.831Z,73.80
2018-11-07T13:28:01.118Z,74.10
2018-11-07T13:30:29.422Z,74.60
2018-11-07T13:32:57.846Z,74.70
2018-11-07T13:35:26.140Z,75.00
2018-11-07T13:37:54.522Z,74.90
2018-11-07T13:40:23.951Z,75.00
2018-11-07T13:42:52.185Z,75.30
2018-11-07T13:45:21.689Z,75.20
2018-11-07T13:47:51.214Z,75.50
2018-11-07T13:50:20.034Z,75.60
2018-11-07T13:52:48.461Z,75.50
2018-11-07T13:55:16.775Z,75.60
2018-11-07T13:57:45.343Z,75.80
2018-11-07T14:00:15.975Z,75.90
2018-11-07T14:02:44.697Z,76.10
2018-11-07T14:05:13.269Z,76.30
2018-11-07T14:07:41.578Z,76.50
2018-11-07T14:10:13.487Z,76.90
2018-11-07T14:12:42.088Z,76.70
2018-11-07T14:15:12.364Z,76.20
2018-11-07T14:17:40.655Z,75.70
2018-11-07T14:20:09.364Z,75.20
2018-11-07T14:22:37.864Z,74.70
2018-11-07T14:25:07.517Z,74.70
2018-11-07T14:27:36.058Z,73.30
2018-11-07T14:30:05.405Z,72.90
2018-11-07T14:32:33.708Z,72.60
2018-11-07T14:35:02.080Z,72.80
2018-11-07T14:37:30.416Z,72.40
2018-11-07T14:39:58.636Z,72.00
2018-11-07T14:42:27.045Z,72.10
2018-11-07T14:44:55.379Z,72.10
2018-11-07T14:47:23.663Z,71.90
2018-11-07T14:49:51.940Z,72.10
2018-11-07T14:52:20.211Z,72.30
2018-11-07T14:54:48.557Z,72.30
2018-11-07T14:57:16.785Z,72.40
2018-11-07T14:59:45.143Z,72.50
2018-11-07T15:02:13.424Z,72.40
2018-11-07T15:04:41.695Z,72.50
2018-11-07T15:07:09.960Z,72.50
2018-11-07T15:09:38.411Z,72.60
2018-11-07T15:12:07.113Z,72.90
2018-11-07T15:14:35.417Z,72.70
2018-11-07T15:17:03.714Z,72.60
2018-11-07T15:19:32.018Z,72.80
2018-11-07T15:22:00.213Z,73.00
2018-11-07T15:24:28.519Z,73.20
2018-11-07T15:26:56.776Z,73.10
2018-11-07T15:29:25.118Z,73.00
2018-11-07T15:32:09.010Z,73.30
2018-11-07T15:34:37.267Z,73.10
2018-11-07T15:37:06.011Z,73.30
2018-11-07T15:39:34.293Z,73.20
2018-11-07T15:42:02.541Z,73.40
2018-11-07T15:44:30.859Z,73.20
2018-11-07T15:46:59.221Z,73.30
2018-11-07T15:49:27.499Z,73.00
2018-11-07T15:51:56.320Z,72.90
2018-11-07T15:54:24.529Z,73.10
2018-11-07T15:56:52.924Z,73.00
2018-11-07T15:59:21.292Z,73.30
2018-11-07T16:01:49.615Z,73.30
2018-11-07T16:04:17.853Z,73.50
2018-11-07T16:06:46.252Z,73.40
2018-11-07T16:09:14.535Z,73.50
2018-11-07T16:11:42.867Z,73.50
2018-11-07T16:14:11.197Z,73.60
2018-11-07T16:16:39.513Z,73.80
2018-11-07T16:19:07.840Z,73.90
2018-11-07T16:21:36.105Z,74.20
2018-11-07T16:24:05.185Z,74.30
2018-11-07T16:26:33.479Z,74.20
2018-11-07T16:29:01.961Z,74.40
2018-11-07T16:31:30.325Z,74.50
2018-11-07T16:33:58.567Z,74.40
2018-11-07T16:36:26.842Z,74.50
2018-11-07T16:38:55.146Z,74.70
2018-11-07T16:41:23.690Z,74.70
2018-11-07T16:43:52.383Z,74.90
2018-11-07T16:46:20.814Z,75.00
2018-11-07T16:48:49.059Z,75.20
2018-11-07T16:51:17.430Z,75.20
2018-11-07T16:53:45.753Z,75.40
2018-11-07T16:56:14.037Z,75.40
2018-11-07T16:58:42.335Z,75.40
2018-11-07T17:01:10.621Z,75.50
2018-11-07T17:03:38.919Z,75.70
2018-11-07T17:06:07.259Z,75.70
2018-11-07T17:08:35.683Z,76.20
2018-11-07T17:11:04.002Z,76.20
2018-11-07T17:13:32.324Z,76.30
2018-11-07T17:16:00.717Z,76.30
2018-11-07T17:18:29.088Z,76.50
2018-11-07T17:20:57.423Z,76.60
2018-11-07T17:23:26.031Z,76.60
2018-11-07T17:25:54.372Z,76.90
2018-11-07T17:28:22.637Z,77.40
2018-11-07T17:30:50.923Z,77.80
2018-11-07T17:33:19.178Z,78.40
2018-11-07T17:35:47.469Z,78.70
2018-11-07T17:38:15.797Z,79.80
2018-11-07T17:40:44.112Z,79.40
2018-11-07T17:43:12.378Z,79.70
2018-11-07T17:45:40.665Z,80.20
2018-11-07T17:48:08.985Z,80.90
2018-11-07T17:50:37.211Z,81.30
2018-11-07T17:53:06.078Z,81.90
2018-11-07T17:55:34.374Z,82.40
2018-11-07T17:58:02.799Z,82.80
2018-11-07T18:00:32.212Z,83.20
2018-11-07T18:03:00.536Z,83.50
2018-11-07T18:05:28.965Z,83.80
2018-11-07T18:07:57.241Z,84.00
2018-11-07T18:10:25.670Z,84.40
2018-11-07T18:12:53.995Z,84.80
2018-11-07T18:15:23.039Z,85.10
2018-11-07T18:17:51.327Z,85.30
2018-11-07T18:20:19.964Z,85.50
2018-11-07T18:22:48.543Z,85.70
2018-11-07T18:25:17.555Z,86.30
2018-11-07T18:27:45.835Z,86.40
2018-11-07T18:30:15.445Z,86.50
2018-11-07T18:32:44.417Z,86.80
2018-11-07T18:35:14.353Z,87.00
2018-11-07T18:37:42.684Z,87.40
2018-11-07T18:40:12.520Z,87.40
2018-11-07T18:42:41.197Z,87.50
2018-11-07T18:45:10.396Z,87.70
2018-11-07T18:47:39.487Z,87.70
2018-11-07T18:50:08.949Z,87.80
2018-11-07T18:52:37.124Z,87.80
2018-11-07T18:55:07.153Z,87.90
2018-11-07T18:57:35.420Z,88.10
2018-11-07T19:00:04.252Z,88.10
2018-11-07T19:02:32.509Z,88.70
2018-11-07T19:05:01.406Z,88.30
2018-11-07T19:07:29.702Z,88.40
2018-11-07T19:09:58.285Z,88.40
2018-11-07T19:12:27.446Z,88.40
2018-11-07T19:14:56.194Z,88.60
2018-11-07T19:17:24.562Z,89.00
2018-11-07T19:19:53.310Z,89.10
2018-11-07T19:22:21.789Z,89.10
2018-11-07T19:24:50.241Z,89.20
2018-11-07T19:27:18.802Z,89.20
2018-11-07T19:29:47.136Z,89.00
2018-11-07T19:32:15.909Z,89.20
2018-11-07T19:34:44.384Z,89.10
2018-11-07T19:37:12.769Z,89.20
2018-11-07T19:39:41.477Z,89.20
2018-11-07T19:42:09.864Z,89.30
2018-11-07T19:44:38.145Z,89.20
2018-11-07T19:47:06.635Z,89.50
2018-11-07T19:49:34.935Z,89.60
2018-11-07T19:52:03.152Z,89.70
2018-11-07T19:54:31.501Z,89.80
2018-11-07T19:56:59.757Z,89.70
2018-11-07T19:59:28.048Z,89.90
2018-11-07T20:01:56.416Z,90.00
2018-11-07T20:04:24.749Z,90.10
2018-11-07T20:06:53.015Z,90.30
2018-11-07T20:09:21.414Z,90.40
2018-11-07T20:11:49.728Z,90.60
2018-11-07T20:14:17.983Z,90.70
2018-11-07T20:16:46.278Z,90.80
2018-11-07T20:19:14.540Z,90.80
2018-11-07T20:21:42.878Z,90.90
2018-11-07T20:24:11.137Z,91.00
2018-11-07T20:26:39.576Z,91.10
2018-11-07T20:29:07.892Z,91.10
2018-11-07T20:31:36.239Z,91.10
2018-11-07T20:34:04.679Z,91.20
2018-11-07T20:36:33.130Z,91.10
2018-11-07T20:39:01.737Z,91.10
2018-11-07T20:41:30.269Z,91.10
2018-11-07T20:43:58.647Z,91.10
2018-11-07T20:46:27.004Z,91.10
2018-11-07T20:48:55.394Z,91.10
2018-11-07T20:51:23.595Z,91.20
2018-11-07T20:53:51.799Z,91.30
2018-11-07T20:56:20.105Z,91.30
2018-11-07T20:58:48.348Z,91.30
2018-11-07T21:01:16.663Z,91.30
2018-11-07T21:03:44.963Z,91.30
2018-11-07T21:06:13.249Z,91.60
2018-11-07T21:08:41.733Z,91.40
2018-11-07T21:11:10.261Z,91.40
2018-11-07T21:13:38.499Z,91.30
2018-11-07T21:16:06.807Z,91.30
2018-11-07T21:18:35.052Z,91.30
2018-11-07T21:21:03.384Z,91.20
2018-11-07T21:23:31.624Z,91.30
2018-11-07T21:26:00.108Z,91.30
2018-11-07T21:28:28.533Z,91.30
2018-11-07T21:30:56.893Z,91.40
2018-11-07T21:33:25.328Z,91.40
2018-11-07T21:35:53.945Z,91.40
2018-11-07T21:38:22.259Z,91.50
2018-11-07T21:40:50.581Z,91.50
2018-11-07T21:43:19.141Z,91.40
2018-11-07T21:45:47.488Z,91.60
2018-11-07T21:48:15.916Z,91.60
2018-11-07T21:50:44.216Z,91.60
2018-11-07T21:53:12.495Z,91.60
2018-11-07T21:55:41.501Z,91.70
2018-11-07T21:58:09.783Z,91.70
2018-11-07T22:00:38.576Z,91.70
2018-11-07T22:03:06.836Z,91.60
2018-11-07T22:05:35.093Z,91.60
2018-11-07T22:08:03.361Z,91.70
2018-11-07T22:10:31.943Z,91.70
2018-11-07T22:13:00.191Z,91.80
2018-11-07T22:15:28.539Z,91.80
2018-11-07T22:17:56.820Z,91.80
2018-11-07T22:20:25.095Z,91.80
2018-11-07T22:22:53.364Z,91.80
2018-11-07T22:25:21.664Z,91.90
2018-11-07T22:27:49.965Z,91.90
2018-11-07T22:30:18.420Z,92.30
2018-11-07T22:32:47.879Z,92.10
2018-11-07T22:35:17.432Z,91.80
2018-11-07T22:37:46.300Z,91.90
2018-11-07T22:40:15.811Z,91.90
2018-11-07T22:42:44.155Z,91.90
2018-11-07T22:45:12.890Z,91.90
2018-11-07T22:47:41.284Z,91.90
2018-11-07T22:50:11.219Z,91.90
2018-11-07T22:52:39.868Z,91.80
2018-11-07T22:55:08.708Z,91.90
2018-11-07T22:57:37.021Z,91.90
2018-11-07T23:00:11.156Z,92.10
2018-11-07T23:02:39.518Z,92.20
2018-11-07T23:05:07.800Z,92.30
2018-11-07T23:07:36.221Z,92.30
2018-11-07T23:10:04.644Z,92.40
2018-11-07T23:12:33.035Z,92.30
2018-11-07T23:15:01.289Z,92.20
2018-11-07T23:17:29.581Z,92.20
2018-11-07T23:19:57.942Z,92.10
2018-11-07T23:22:26.347Z,92.10
2018-11-07T23:24:54.728Z,92.10
2018-11-07T23:27:23.167Z,92.00
2018-11-07T23:29:51.453Z,92.00
2018-11-07T23:32:19.715Z,92.00
2018-11-07T23:34:48.078Z,91.80
2018-11-07T23:37:16.417Z,91.70
2018-11-07T23:39:44.719Z,91.70
2018-11-07T23:42:12.970Z,91.70
2018-11-07T23:44:41.211Z,91.80
2018-11-07T23:47:09.521Z,91.80
2018-11-07T23:49:37.720Z,91.80
2018-11-07T23:52:06.299Z,91.70
2018-11-07T23:54:34.592Z,91.60
2018-11-07T23:57:02.870Z,91.60
2018-11-07T23:59:31.107Z,91.70
